Time;durP1;ratioP1;P1;durP2;ratioP2;P2;SDS_P1;SDS_P2;PMS_P1;PMS_P2;Temp;Humidity;BMP_temperature;BMP_pressure;BME280_temperature;BME280_humidity;BME280_pressure;Samples;Min_cycle;Max_cycle;Signal;HPM_P1;HPM_P2
2022/08/24 00:01:07;;;;;;;13.60;6.20;;;;;;;22.45;66.07;100133.96;106771;1281;138907;-70
2022/08/24 00:03:41;;;;;;;9.10;6.20;;;;;;;22.42;65.90;100134.90;106896;1282;96124;-71
2022/08/24 00:06:17;;;;;;;11.00;6.10;;;;;;;22.38;65.87;100133.70;106827;1280;139807;-70
2022/08/24 00:08:51;;;;;;;14.40;6.10;;;;;;;22.36;66.03;100137.23;106934;1281;113542;-70
2022/08/24 00:11:23;;;;;;;11.90;6.30;;;;;;;22.35;66.02;100135.69;106054;1284;108938;-70
2022/08/24 00:13:56;;;;;;;13.50;6.40;;;;;;;22.33;66.07;100138.53;105430;1281;140712;-70
2022/08/24 00:16:28;;;;;;;13.90;6.70;;;;;;;22.31;66.20;100138.52;105459;1282;97923;-70
2022/08/24 00:19:00;;;;;;;11.00;6.20;;;;;;;22.28;66.09;100137.15;105332;1284;139792;-70
2022/08/24 00:21:33;;;;;;;9.90;6.00;;;;;;;22.25;66.18;100135.77;105432;1282;112710;-70
2022/08/24 00:24:06;;;;;;;10.90;6.30;;;;;;;22.24;66.20;100133.23;105407;1282;107204;-70
2022/08/24 00:26:39;;;;;;;12.50;6.90;;;;;;;22.24;66.33;100136.19;105354;1282;109102;-70
2022/08/24 00:29:13;;;;;;;10.60;6.10;;;;;;;22.23;66.43;100141.65;105338;1284;98276;-70
2022/08/24 00:31:45;;;;;;;11.00;6.50;;;;;;;22.21;66.40;100141.11;105481;1281;139564;-70
2022/08/24 00:34:18;;;;;;;10.70;6.30;;;;;;;22.19;66.35;100138.43;105305;1282;112472;-70
2022/08/24 00:36:50;;;;;;;9.90;6.00;;;;;;;22.17;66.36;100139.48;105364;1282;139413;-70
2022/08/24 00:39:23;;;;;;;9.50;6.10;;;;;;;22.15;66.59;100138.46;105449;1282;109020;-70
2022/08/24 00:41:55;;;;;;;10.10;6.40;;;;;;;22.11;66.64;100133.77;105376;1282;97846;-70
2022/08/24 00:44:29;;;;;;;13.00;6.50;;;;;;;22.08;66.63;100133.11;105281;1282;138634;-69
2022/08/24 00:47:05;;;;;;;9.90;6.50;;;;;;;22.06;66.69;100134.17;105821;1281;112553;-71
2022/08/24 00:49:42;;;;;;;12.40;6.40;;;;;;;22.04;66.63;100132.70;105441;1281;138992;-71
2022/08/24 00:52:18;;;;;;;10.90;6.90;;;;;;;22.02;66.58;100139.02;105525;1282;108062;-71
2022/08/24 00:54:55;;;;;;;13.00;6.20;;;;;;;22.01;66.72;100135.23;105112;1284;139471;-71
2022/08/24 00:57:30;;;;;;;11.50;6.70;;;;;;;22.00;66.65;100134.27;105134;1284;97931;-71
2022/08/24 01:00:08;;;;;;;15.60;6.70;;;;;;;21.97;66.68;100134.73;105365;1284;111554;-70
2022/08/24 01:02:44;;;;;;;10.00;6.40;;;;;;;21.93;66.81;100138.41;105699;1271;108806;-71
2022/08/24 01:05:18;;;;;;;13.50;6.70;;;;;;;21.89;67.04;100136.27;105610;1281;109041;-71
2022/08/24 01:07:50;;;;;;;9.30;6.30;;;;;;;21.85;66.91;100133.59;105543;1281;139104;-70
2022/08/24 01:10:26;;;;;;;10.50;6.60;;;;;;;21.82;67.00;100133.98;105694;1279;97835;-71
2022/08/24 01:13:02;;;;;;;11.70;6.70;;;;;;;21.78;67.36;100133.08;105524;1281;138890;-70
2022/08/24 01:15:41;;;;;;;12.10;6.70;;;;;;;21.75;67.16;100133.21;105545;1281;108925;-70
2022/08/24 01:21:14;;;;;;;13.90;6.60;;;;;;;21.68;67.51;100133.83;105521;1281;97871;-70
2022/08/24 01:23:48;;;;;;;14.60;6.80;;;;;;;21.68;67.53;100138.77;105520;1281;97963;-70
2022/08/24 01:26:25;;;;;;;13.90;7.30;;;;;;;21.67;67.52;100140.80;105541;1281;138768;-70
2022/08/24 01:29:03;;;;;;;11.20;6.70;;;;;;;21.66;67.64;100144.27;105681;1281;107942;-70
2022/08/24 01:31:37;;;;;;;11.00;7.00;;;;;;;21.64;67.66;100137.87;105427;1281;139046;-71
2022/08/24 01:34:10;;;;;;;11.10;7.00;;;;;;;21.63;67.67;100137.99;105534;1281;97891;-70
2022/08/24 01:36:45;;;;;;;12.20;6.70;;;;;;;21.62;67.76;100143.05;105456;1281;139047;-70
2022/08/24 01:39:21;;;;;;;;;;;;;;;21.60;67.72;100147.11;105544;1281;112514;-70
2022/08/24 01:41:54;;;;;;;9.90;6.60;;;;;;;21.56;67.85;100153.63;107079;1278;109010;-71
2022/08/24 01:44:32;;;;;;;13.40;6.90;;;;;;;21.54;67.84;100160.97;106323;1281;138601;-69
2022/08/24 01:47:07;;;;;;;10.60;6.70;;;;;;;21.55;68.07;100160.44;105444;1279;98360;-70
2022/08/24 01:49:42;;;;;;;10.00;7.10;;;;;;;21.56;68.01;100168.66;105505;1279;139134;-70
2022/08/24 01:52:17;;;;;;;12.30;6.80;;;;;;;21.57;68.21;100166.13;105521;1281;112540;-71
2022/08/24 01:54:49;;;;;;;11.50;6.30;;;;;;;21.56;68.07;100166.15;105534;1281;139152;-71
2022/08/24 01:57:26;;;;;;;10.10;6.60;;;;;;;21.53;67.94;100169.59;105610;1280;108855;-71
2022/08/24 02:00:00;;;;;;;9.70;6.80;;;;;;;21.51;68.20;100168.34;105478;1281;97852;-71
2022/08/24 02:02:44;;;;;;;11.20;6.90;;;;;;;21.51;68.24;100169.52;105614;1278;98205;-71
2022/08/24 02:05:17;;;;;;;9.60;6.50;;;;;;;21.51;68.21;100172.77;105454;1279;112491;-71
2022/08/24 02:07:49;;;;;;;11.00;6.60;;;;;;;21.48;68.13;100177.92;105493;1279;138936;-71
2022/08/24 02:10:22;;;;;;;17.50;7.10;;;;;;;21.43;68.22;100186.80;105439;1279;108841;-72
2022/08/24 02:12:58;;;;;;;10.90;6.90;;;;;;;21.38;68.10;100193.09;105581;1279;139071;-71
2022/08/24 02:15:35;;;;;;;10.00;6.50;;;;;;;21.33;68.42;100193.83;105730;1279;97856;-70
2022/08/24 02:18:09;;;;;;;13.00;6.70;;;;;;;21.32;68.37;100195.61;107151;1279;111525;-71
2022/08/24 02:20:46;;;;;;;11.80;6.60;;;;;;;21.32;68.58;100195.98;106337;1279;109001;-71
2022/08/24 02:23:20;;;;;;;12.30;7.30;;;;;;;21.32;68.66;100199.91;105767;1279;107835;-71
2022/08/24 02:25:52;;;;;;;14.80;7.30;;;;;;;21.30;68.61;100202.48;105377;1279;139009;-70
2022/08/24 02:28:25;;;;;;;12.60;7.40;;;;;;;21.30;68.55;100198.44;105426;1279;97842;-70
2022/08/24 02:30:57;;;;;;;12.10;7.10;;;;;;;21.29;68.82;100198.48;105380;1279;138729;-70
2022/08/24 02:33:29;;;;;;;12.50;7.50;;;;;;;21.28;68.70;100200.54;105434;1279;108508;-70
2022/08/24 02:36:02;;;;;;;11.30;7.30;;;;;;;21.27;68.68;100204.04;105613;1279;108954;-70
2022/08/24 02:38:41;;;;;;;13.00;7.60;;;;;;;21.27;68.83;100207.19;105431;1280;97928;-70
2022/08/24 02:41:17;;;;;;;12.60;7.90;;;;;;;21.27;68.69;100205.05;105648;1279;97771;-71
2022/08/24 02:43:50;;;;;;;12.50;7.90;;;;;;;21.25;68.74;100199.36;105546;1279;138746;-70
2022/08/24 02:46:25;;;;;;;14.00;7.70;;;;;;;21.25;69.05;100197.08;105675;1279;109215;-71
2022/08/24 02:48:59;;;;;;;11.10;7.50;;;;;;;21.26;68.92;100198.23;105987;1279;140511;-71
2022/08/24 02:51:47;;;;;;;11.30;7.10;;;;;;;21.27;68.94;100197.45;105572;1279;97887;-71
2022/08/24 02:54:23;;;;;;;12.10;7.50;;;;;;;21.29;69.01;100196.27;105605;1279;140364;-71
2022/08/24 02:56:56;;;;;;;14.30;8.20;;;;;;;21.29;69.17;100197.09;105654;1279;110434;-71
2022/08/24 02:59:28;;;;;;;10.70;6.80;;;;;;;21.29;68.96;100196.58;105650;1279;107789;-71
2022/08/24 03:02:01;;;;;;;13.40;7.20;;;;;;;21.29;69.11;100200.98;105402;1279;139273;-70
2022/08/24 03:04:34;;;;;;;13.40;7.50;;;;;;;21.29;69.14;100199.23;105340;1279;97878;-71
2022/08/24 03:07:07;;;;;;;10.70;7.40;;;;;;;21.29;68.99;100194.32;105319;1279;139272;-71
2022/08/24 03:09:39;;;;;;;11.80;7.20;;;;;;;21.30;69.13;100188.55;105624;1279;112881;-70
2022/08/24 03:12:11;;;;;;;14.70;7.60;;;;;;;21.32;69.08;100189.61;105520;1279;139142;-70
2022/08/24 03:14:44;;;;;;;11.50;7.40;;;;;;;21.34;69.27;100191.42;105515;1279;108868;-71
2022/08/24 03:17:16;;;;;;;12.70;7.10;;;;;;;21.33;69.09;100191.45;105583;1279;97869;-70
2022/08/24 03:19:48;;;;;;;13.00;7.00;;;;;;;21.34;69.12;100191.77;105568;1279;139050;-72
2022/08/24 03:22:20;;;;;;;11.40;7.10;;;;;;;21.33;69.04;100195.88;105584;1279;112333;-70
2022/08/24 03:24:52;;;;;;;13.60;7.60;;;;;;;21.33;69.18;100198.55;105407;1279;139714;-70
2022/08/24 03:27:25;;;;;;;12.00;7.40;;;;;;;21.32;69.12;100196.29;105649;1279;108881;-70
2022/08/24 03:29:57;;;;;;;11.40;6.60;;;;;;;21.34;69.13;100197.93;105644;1279;97876;-70
2022/08/24 03:32:31;;;;;;;12.70;7.30;;;;;;;21.36;69.00;100196.91;105454;1279;139486;-72
2022/08/24 03:35:03;;;;;;;13.70;7.30;;;;;;;21.37;69.08;100199.67;105504;1279;111468;-70
2022/08/24 03:37:36;;;;;;;15.70;7.00;;;;;;;21.37;69.09;100199.14;105422;1279;141246;-71
2022/08/24 03:40:11;;;;;;;15.40;7.00;;;;;;;21.37;69.31;100204.61;105516;1281;108864;-71
2022/08/24 03:42:57;;;;;;;13.30;7.50;;;;;;;21.37;69.10;100208.55;106876;1279;139684;-71
2022/08/24 03:45:31;;;;;;;13.40;7.70;;;;;;;21.38;69.09;100214.13;105676;1279;97733;-70
2022/08/24 03:48:04;;;;;;;11.20;7.50;;;;;;;21.39;69.22;100216.89;105618;1279;111505;-71
2022/08/24 03:50:36;;;;;;;14.80;8.40;;;;;;;21.40;69.32;100220.98;105706;1279;106849;-71
2022/08/24 03:53:08;;;;;;;12.10;8.10;;;;;;;21.42;69.21;100214.86;105569;1279;108981;-70
2022/08/24 03:55:40;;;;;;;14.70;7.60;;;;;;;21.43;69.05;100217.27;105261;1279;139400;-70
2022/08/24 03:58:13;;;;;;;14.00;7.50;;;;;;;21.44;69.13;100217.54;105619;1279;97868;-70
2022/08/24 04:00:46;;;;;;;11.90;7.20;;;;;;;21.45;69.02;100222.22;105479;1279;139228;-70
2022/08/24 04:03:18;;;;;;;12.80;7.30;;;;;;;21.47;69.22;100223.45;105451;1279;109416;-71
2022/08/24 04:05:50;;;;;;;11.30;7.20;;;;;;;21.50;69.12;100223.61;105531;1281;108884;-71
2022/08/24 04:08:24;;;;;;;11.50;7.50;;;;;;;21.50;69.12;100223.77;105533;1279;138889;-71
2022/08/24 04:10:56;;;;;;;12.40;8.00;;;;;;;21.49;68.97;100228.63;105487;1279;97867;-71
2022/08/24 04:13:30;;;;;;;10.20;7.70;;;;;;;21.47;69.10;100230.04;105273;1279;139825;-71
2022/08/24 04:16:08;;;;;;;12.50;7.60;;;;;;;21.44;69.05;100231.84;105684;1279;108968;-71
2022/08/24 04:18:41;;;;;;;11.40;7.40;;;;;;;21.44;69.04;100230.64;105498;1279;141539;-71
2022/08/24 04:21:20;;;;;;;11.30;8.40;;;;;;;21.44;69.27;100233.13;105594;1281;97858;-71
2022/08/24 04:23:53;;;;;;;13.00;7.70;;;;;;;21.44;69.04;100239.68;105486;1279;97888;-71
2022/08/24 04:26:29;;;;;;;16.40;8.60;;;;;;;21.42;69.13;100242.23;105595;1279;139809;-71
2022/08/24 04:29:19;;;;;;;12.60;7.70;;;;;;;21.42;69.12;100244.55;105655;1279;109253;-71
2022/08/24 04:31:57;;;;;;;15.20;7.80;;;;;;;21.43;69.25;100244.70;105733;1279;139328;-71
2022/08/24 04:34:30;;;;;;;12.50;7.80;;;;;;;21.45;69.25;100245.56;105443;1279;98071;-71
2022/08/24 04:37:02;;;;;;;15.50;7.80;;;;;;;21.47;69.06;100244.38;105572;1279;139194;-70
2022/08/24 04:39:40;;;;;;;14.00;7.50;;;;;;;21.49;69.06;100247.88;105586;1279;112844;-71
2022/08/24 04:42:36;;;;;;;15.70;7.90;;;;;;;21.53;69.08;100253.98;105626;1279;139191;-71
2022/08/24 04:45:10;;;;;;;12.00;7.10;;;;;;;21.55;69.11;100251.14;105481;1279;108773;-71
2022/08/24 04:47:43;;;;;;;12.00;7.60;;;;;;;21.59;69.13;100255.10;105693;1279;97876;-71
2022/08/24 04:50:16;;;;;;;13.30;7.40;;;;;;;21.63;69.05;100259.55;105369;1279;139181;-70
2022/08/24 04:52:55;;;;;;;12.70;7.40;;;;;;;21.65;68.94;100260.59;105628;1279;113013;-70
2022/08/24 04:55:27;;;;;;;14.90;7.70;;;;;;;21.69;68.96;100264.54;105339;1281;140239;-70
2022/08/24 04:58:01;;;;;;;12.60;7.20;;;;;;;21.73;68.86;100266.91;105650;1279;108940;-70
2022/08/24 05:00:33;;;;;;;14.80;7.20;;;;;;;21.77;68.82;100270.73;105565;1279;139142;-71
2022/08/24 05:03:06;;;;;;;14.50;7.40;;;;;;;21.80;68.63;100274.70;105593;1279;97872;-71
2022/08/24 05:05:41;;;;;;;10.60;7.10;;;;;;;21.83;68.64;100276.04;105606;1279;112631;-71
2022/08/24 05:08:14;;;;;;;16.80;7.30;;;;;;;21.87;68.53;100279.08;105464;1279;138899;-71
2022/08/24 05:10:49;;;;;;;13.00;7.90;;;;;;;21.89;68.46;100277.01;105514;1281;109012;-70
2022/08/24 05:13:22;;;;;;;14.50;7.20;;;;;;;21.92;68.32;100274.85;105589;1279;139194;-70
2022/08/24 05:15:54;;;;;;;15.10;7.10;;;;;;;21.95;68.33;100272.94;105660;1279;97854;-70
2022/08/24 05:18:28;;;;;;;13.80;7.90;;;;;;;22.01;68.35;100267.54;105439;1279;138812;-70
2022/08/24 05:21:01;;;;;;;14.50;7.30;;;;;;;22.11;68.26;100257.91;105600;1279;108961;-70
2022/08/24 05:23:34;;;;;;;13.70;7.50;;;;;;;22.23;68.22;100252.48;105675;1279;108814;-70
2022/08/24 05:26:09;;;;;;;17.30;7.40;;;;;;;22.38;68.15;100253.06;105445;1279;138963;-70
2022/08/24 05:28:42;;;;;;;14.80;7.80;;;;;;;22.62;67.83;100256.95;105509;1279;97745;-70
2022/08/24 05:31:18;;;;;;;21.90;7.30;;;;;;;22.76;67.47;100259.86;105447;1279;139468;-71
2022/08/24 05:33:51;;;;;;;27.40;8.00;;;;;;;22.87;67.00;100264.23;105571;1281;108757;-70
2022/08/24 05:36:25;;;;;;;28.30;7.80;;;;;;;22.97;66.71;100261.87;105493;1279;139165;-70
2022/08/24 05:38:59;;;;;;;25.10;8.60;;;;;;;23.06;66.30;100260.05;105416;1279;98383;-71
2022/08/24 05:41:31;;;;;;;26.30;8.00;;;;;;;23.13;66.23;100257.45;105609;1279;97861;-70
2022/08/24 05:44:13;;;;;;;29.00;9.60;;;;;;;23.18;66.01;100253.72;105611;1279;139493;-70
2022/08/24 05:46:46;;;;;;;30.60;8.90;;;;;;;23.20;65.86;100255.30;105754;1279;109327;-70
2022/08/24 05:49:18;;;;;;;37.90;8.60;;;;;;;23.22;65.72;100259.96;105630;1279;139630;-70
2022/08/24 05:51:50;;;;;;;33.80;8.80;;;;;;;23.21;65.63;100261.10;105706;1279;97834;-70
2022/08/24 05:54:25;;;;;;;40.20;17.00;;;;;;;23.20;65.51;100262.20;105445;1280;139454;-70
2022/08/24 05:57:03;;;;;;;24.30;9.10;;;;;;;23.22;65.35;100254.25;105743;1279;112749;-70
2022/08/24 05:59:48;;;;;;;30.70;9.30;;;;;;;23.25;65.43;100253.12;105526;1279;110008;-71
2022/08/24 06:02:22;;;;;;;23.90;8.10;;;;;;;23.25;65.25;100252.55;105394;1279;139213;-71
2022/08/24 06:04:55;;;;;;;28.70;8.40;;;;;;;23.25;65.32;100250.06;105450;1279;97852;-73
2022/08/24 06:07:27;;;;;;;27.00;8.40;;;;;;;23.28;65.28;100248.42;105426;1279;139474;-70
2022/08/24 06:10:00;;;;;;;36.00;9.70;;;;;;;23.31;65.30;100253.45;105430;1279;111002;-70
2022/08/24 06:12:52;;;;;;;38.40;10.20;;;;;;;23.33;65.03;100258.45;105521;1279;142885;-70
2022/08/24 06:15:25;;;;;;;48.60;10.20;;;;;;;23.32;64.80;100248.05;105684;1279;108630;-70
2022/08/24 06:17:57;;;;;;;29.40;9.00;;;;;;;23.46;65.02;100237.65;105706;1279;97865;-70
2022/08/24 06:20:30;;;;;;;33.90;9.40;;;;;;;23.88;64.96;100239.13;105497;1279;139016;-71
2022/08/24 06:23:02;;;;;;;40.50;9.70;;;;;;;24.08;64.41;100242.33;105667;1279;112202;-71
2022/08/24 06:28:32;;;;;;;31.20;8.90;;;;;;;24.70;63.52;100233.45;105709;1279;108769;-72
2022/08/24 06:31:06;;;;;;;40.90;9.30;;;;;;;24.95;62.51;100239.69;106450;1279;139596;-71
2022/08/24 06:33:38;;;;;;;33.70;7.80;;;;;;;25.08;62.33;100243.46;106960;1279;96362;-71
2022/08/24 06:36:11;;;;;;;27.40;8.10;;;;;;;25.19;62.00;100247.73;107072;1279;138806;-71
2022/08/24 06:38:43;;;;;;;28.90;8.70;;;;;;;25.40;61.58;100245.77;107124;1279;108804;-71
2022/08/24 06:41:19;;;;;;;34.20;8.10;;;;;;;25.64;61.07;100244.77;106933;1279;108899;-71
2022/08/24 06:43:51;;;;;;;24.80;8.30;;;;;;;25.75;60.58;100244.11;106431;1279;140285;-70
2022/08/24 06:46:28;;;;;;;22.70;7.30;;;;;;;25.82;60.26;100248.38;107115;1279;96280;-71
2022/08/24 06:49:04;;;;;;;25.30;7.80;;;;;;;25.91;60.21;100258.23;106794;1279;139006;-71
2022/08/24 06:51:39;;;;;;;19.50;7.10;;;;;;;26.04;59.59;100260.69;105805;1279;109010;-70
2022/08/24 06:54:12;;;;;;;16.00;7.20;;;;;;;26.17;59.31;100270.96;106265;1279;138299;-70
2022/08/24 06:56:45;;;;;;;19.80;7.40;;;;;;;26.43;59.03;100266.69;106285;1279;97858;-70
2022/08/24 06:59:17;;;;;;;28.20;7.70;;;;;;;26.64;57.99;100272.86;105414;1279;97890;-70
2022/08/24 07:01:50;;;;;;;28.10;7.20;;;;;;;26.88;57.57;100274.34;105383;1279;138565;-70
2022/08/24 07:04:23;;;;;;;26.40;7.10;;;;;;;27.25;57.21;100275.77;105729;1279;107707;-71
2022/08/24 07:07:08;;;;;;;27.80;7.00;;;;;;;27.76;56.28;100281.83;105552;1279;138263;-71
2022/08/24 07:09:41;;;;;;;22.30;7.70;;;;;;;28.11;55.75;100280.06;105540;1279;98446;-70
2022/08/24 07:12:13;;;;;;;36.00;9.70;;;;;;;28.26;55.11;100279.27;105411;1279;138200;-70
2022/08/24 07:14:45;;;;;;;24.90;8.20;;;;;;;28.27;54.52;100283.13;105637;1279;112530;-71
2022/08/24 07:17:18;;;;;;;22.80;7.10;;;;;;;28.23;54.37;100286.85;105964;1279;110422;-70
2022/08/24 07:19:50;;;;;;;24.30;7.10;;;;;;;28.20;54.08;100291.67;105433;1279;138900;-70
2022/08/24 07:22:45;;;;;;;24.30;7.10;;;;;;;28.32;53.79;100292.73;105649;1279;97968;-72
2022/08/24 07:25:18;;;;;;;29.20;7.70;;;;;;;28.29;53.60;100291.79;105553;1279;138197;-72
2022/08/24 07:27:51;;;;;;;21.30;6.60;;;;;;;28.18;53.67;100300.11;105670;1279;112511;-72
2022/08/24 07:30:24;;;;;;;28.80;7.60;;;;;;;28.09;53.54;100305.33;105715;1279;138983;-71
2022/08/24 07:32:59;;;;;;;33.20;7.60;;;;;;;28.01;53.56;100304.55;106044;1279;108916;-71
2022/08/24 07:35:33;;;;;;;29.00;7.20;;;;;;;27.92;53.69;100306.92;105580;1279;97821;-70
2022/08/24 07:38:07;;;;;;;31.10;7.10;;;;;;;27.89;53.52;100311.26;105839;1279;138144;-71
2022/08/24 07:40:39;;;;;;;27.10;7.20;;;;;;;27.87;53.73;100317.35;105795;1279;112981;-70
2022/08/24 07:43:32;;;;;;;25.30;7.60;;;;;;;27.83;53.54;100318.99;105797;1280;138615;-69
2022/08/24 07:46:06;;;;;;;29.60;7.70;;;;;;;27.88;53.68;100322.25;106785;1279;108997;-70
2022/08/24 07:48:40;;;;;;;25.10;7.10;;;;;;;28.14;53.62;100317.21;105678;1279;139809;-70
2022/08/24 07:51:14;;;;;;;30.00;8.80;;;;;;;28.68;52.95;100319.52;106909;1279;95788;-70
2022/08/24 07:53:47;;;;;;;39.60;9.90;;;;;;;29.24;52.08;100315.39;105717;1279;112515;-70
2022/08/24 07:56:30;;;;;;;30.60;7.60;;;;;;;29.67;51.09;100315.84;105633;1279;138048;-68
2022/08/24 07:59:04;;;;;;;26.20;7.30;;;;;;;29.79;50.95;100311.10;106071;1279;108810;-69
2022/08/24 08:01:44;;;;;;;29.30;7.60;;;;;;;29.81;50.72;100310.19;105574;1279;138541;-69
2022/08/24 08:04:20;;;;;;;28.70;7.20;;;;;;;29.75;50.84;100309.72;106452;1279;97713;-69
2022/08/24 08:06:53;;;;;;;21.00;6.40;;;;;;;29.60;50.95;100305.70;105893;1279;138458;-69
2022/08/24 08:09:31;;;;;;;27.50;7.20;;;;;;;29.54;51.31;100307.79;105724;1279;108966;-69
2022/08/24 08:12:05;;;;;;;27.70;7.30;;;;;;;29.58;51.43;100309.55;105679;1279;107877;-69
2022/08/24 08:14:37;;;;;;;23.60;7.40;;;;;;;29.68;51.51;100309.11;106527;1279;97593;-69
2022/08/24 08:17:09;;;;;;;26.20;7.80;;;;;;;29.82;51.31;100303.23;107129;1279;96494;-69
2022/08/24 08:19:42;;;;;;;25.60;7.00;;;;;;;29.97;50.81;100304.16;106880;1281;138062;-69
2022/08/24 08:25:23;;;;;;;38.50;7.30;;;;;;;30.14;50.45;100308.13;107034;1279;138583;-69
2022/08/24 08:27:56;;;;;;;28.20;7.20;;;;;;;30.20;50.67;100311.70;107101;1279;96056;-69
2022/08/24 08:30:44;;;;;;;23.70;6.90;;;;;;;30.54;50.82;100316.96;106951;1279;138454;-69
2022/08/24 08:33:17;;;;;;;28.00;6.40;;;;;;;30.85;50.51;100308.81;107232;1279;112501;-69
2022/08/24 08:35:52;;;;;;;26.20;7.60;;;;;;;30.90;49.72;100313.50;107028;1279;108812;-69
2022/08/24 08:38:26;;;;;;;34.30;7.40;;;;;;;30.89;49.55;100315.09;106043;1279;138026;-69
2022/08/24 08:41:08;;;;;;;28.70;6.80;;;;;;;30.79;49.12;100327.71;105620;1279;98487;-69
2022/08/24 08:43:47;;;;;;;35.40;6.50;;;;;;;30.64;48.96;100332.15;105510;1279;138260;-69
2022/08/24 08:46:31;;;;;;;26.40;6.80;;;;;;;30.48;48.94;100338.24;105759;1279;111545;-69
2022/08/24 08:49:42;;;;;;;29.90;6.90;;;;;;;30.42;49.58;100346.15;105439;1279;138343;-69
2022/08/24 08:52:46;;;;;;;29.90;6.60;;;;;;;30.55;49.74;100337.64;107158;1278;108846;-70
2022/08/24 08:55:30;;;;;;;26.60;6.70;;;;;;;31.00;49.62;100328.80;106927;1279;139010;-69
2022/08/24 08:58:17;;;;;;;28.40;7.00;;;;;;;31.32;49.21;100330.64;105996;1279;98510;-71
2022/08/24 09:01:01;;;;;;;32.20;6.10;;;;;;;31.64;48.62;100332.74;106483;1279;138281;-71
2022/08/24 09:03:56;;;;;;;28.00;6.00;;;;;;;32.00;47.61;100333.46;107166;1279;108924;-71
2022/08/24 09:07:01;;;;;;;24.10;6.80;;;;;;;32.29;47.00;100330.36;106795;1281;138436;-71
2022/08/24 09:10:04;;;;;;;28.40;7.10;;;;;;;32.58;46.82;100336.12;106979;1279;96118;-68
2022/08/24 09:12:54;;;;;;;34.20;7.70;;;;;;;32.68;46.28;100340.06;105427;1281;138589;-71
2022/08/24 09:15:56;;;;;;;32.20;7.30;;;;;;;32.63;45.92;100341.16;107126;1279;112556;-69
2022/08/24 09:18:43;;;;;;;32.00;8.80;;;;;;;32.45;45.71;100337.05;106000;1279;138470;-69
2022/08/24 09:21:40;;;;;;;24.90;7.30;;;;;;;32.25;45.64;100336.19;105774;1279;109388;-69
2022/08/24 09:24:36;;;;;;;22.70;6.40;;;;;;;32.01;45.61;100337.64;105605;1279;138439;-69
2022/08/24 09:27:23;;;;;;;36.60;17.30;;;;;;;31.86;46.03;100335.52;105733;1279;97923;-68
2022/08/24 09:30:08;;;;;;;32.60;7.40;;;;;;;31.76;46.29;100329.64;105712;1279;111547;-70
2022/08/24 09:32:57;;;;;;;22.20;5.70;;;;;;;31.71;46.41;100330.92;105836;1279;108883;-68
2022/08/24 09:35:48;;;;;;;28.20;6.70;;;;;;;31.72;46.66;100332.30;106104;1279;109368;-69
2022/08/24 09:38:58;;;;;;;25.00;7.10;;;;;;;31.69;46.47;100333.90;106155;1279;138948;-69
2022/08/24 09:42:14;;;;;;;23.90;6.80;;;;;;;31.60;46.64;100329.04;107241;1279;95974;-69
2022/08/24 09:45:16;;;;;;;28.60;6.90;;;;;;;31.52;46.77;100332.25;107031;1279;111445;-70
2022/08/24 09:48:10;;;;;;;29.90;7.10;;;;;;;31.43;46.86;100333.86;105760;1279;107029;-70
2022/08/24 09:51:08;;;;;;;34.00;7.70;;;;;;;31.41;46.92;100334.36;105749;1279;107900;-69
2022/08/24 09:54:06;;;;;;;22.10;7.00;;;;;;;31.45;47.08;100335.85;105696;1279;97868;-69
2022/08/24 09:57:01;;;;;;;26.00;7.10;;;;;;;31.53;47.19;100341.98;105804;1279;97853;-69
2022/08/24 10:00:06;;;;;;;22.20;7.00;;;;;;;31.71;47.38;100343.06;105692;1279;111515;-68
2022/08/24 10:02:58;;;;;;;22.70;7.00;;;;;;;32.03;47.11;100347.98;105643;1279;108913;-68
2022/08/24 10:05:43;;;;;;;18.30;6.90;;;;;;;32.42;46.95;100344.48;105632;1279;108807;-79
2022/08/24 10:08:28;;;;;;;18.10;5.50;;;;;;;32.85;46.20;100347.33;105485;1279;139295;-73
2022/08/24 10:11:13;;;;;;;22.10;6.60;;;;;;;33.28;45.98;100344.58;105730;1279;97868;-73
2022/08/24 10:13:55;;;;;;;20.90;6.50;;;;;;;33.79;45.39;100338.98;105485;1279;138637;-79
2022/08/24 10:16:38;;;;;;;17.20;5.60;;;;;;;34.33;44.68;100347.46;105709;1279;108981;-77
2022/08/24 10:19:31;;;;;;;20.20;6.40;;;;;;;34.79;43.56;100344.38;106003;1279;138333;-79
2022/08/24 10:22:16;;;;;;;18.40;5.50;;;;;;;35.15;42.80;100346.13;105586;1279;97849;-79
2022/08/24 10:25:03;;;;;;;18.70;5.00;;;;;;;35.37;42.47;100343.73;105499;1279;139844;-80
2022/08/24 10:27:46;;;;;;;19.20;5.30;;;;;;;35.62;41.53;100345.99;105590;1279;111414;-75
2022/08/24 10:30:47;;;;;;;17.20;5.90;;;;;;;35.75;40.98;100342.39;105563;1279;139787;-78
2022/08/24 10:33:24;;;;;;;20.60;5.90;;;;;;;35.85;40.78;100338.52;105691;1279;108743;-78
2022/08/24 10:36:26;;;;;;;20.40;5.90;;;;;;;35.86;40.60;100334.63;106882;1279;97195;-78
2022/08/24 10:45:55;;;;;;;18.20;5.80;;;;;;;35.84;40.39;100334.70;105456;1285;109219;-78
2022/08/24 10:48:58;;;;;;;17.80;6.10;;;;;;;35.92;39.89;100333.25;106313;1286;138599;-78
2022/08/24 10:51:49;;;;;;;23.90;6.40;;;;;;;36.02;40.06;100335.71;105994;1285;96396;-79
2022/08/24 10:54:22;;;;;;;28.80;6.30;;;;;;;35.88;39.70;100340.13;106355;1286;138208;-79
2022/08/24 10:57:01;;;;;;;25.10;6.80;;;;;;;35.55;39.64;100338.16;105860;1284;111766;-78
2022/08/24 10:59:41;;;;;;;23.40;7.30;;;;;;;35.23;39.66;100338.58;104963;1285;108954;-79
2022/08/24 11:02:33;;;;;;;29.80;7.20;;;;;;;34.96;40.10;100338.27;104846;1287;138409;-80
2022/08/24 11:05:11;;;;;;;24.50;6.30;;;;;;;34.63;40.49;100338.56;105012;1287;98438;-82
2022/08/24 11:07:58;;;;;;;30.60;7.30;;;;;;;34.35;40.65;100337.90;104882;1287;138340;-82
2022/08/24 11:10:33;;;;;;;27.30;7.00;;;;;;;34.07;41.03;100337.63;104994;1287;112552;-82
2022/08/24 11:13:23;;;;;;;37.60;8.20;;;;;;;33.83;41.16;100337.04;104890;1287;139320;-82
2022/08/24 11:15:57;;;;;;;34.10;7.00;;;;;;;33.55;41.72;100339.70;106303;1279;107857;-83
2022/08/24 11:18:49;;;;;;;33.10;7.50;;;;;;;33.30;41.79;100333.16;106245;1279;140056;-79
2022/08/24 11:21:40;;;;;;;33.80;8.70;;;;;;;33.07;42.78;100330.98;106582;1279;97748;-79
2022/08/24 11:24:26;;;;;;;32.00;8.00;;;;;;;32.91;42.68;100331.17;106704;1279;138304;-78
2022/08/24 11:27:02;;;;;;;27.10;7.70;;;;;;;32.76;42.96;100326.98;105474;1279;1366706;-80
2022/08/24 11:29:59;;;;;;;37.20;8.20;;;;;;;32.56;43.05;100324.89;107166;1279;107587;-81
2022/08/24 11:32:37;;;;;;;37.90;7.90;;;;;;;32.31;43.19;100328.52;105577;1279;138252;-80
2022/08/24 11:35:19;;;;;;;37.30;7.60;;;;;;;32.10;43.67;100332.17;105759;1279;97844;-80
2022/08/24 11:37:54;;;;;;;37.40;7.60;;;;;;;31.90;43.95;100329.80;105705;1279;139756;-80
2022/08/24 11:40:33;;;;;;;38.60;8.50;;;;;;;31.71;44.08;100328.06;105718;1279;108836;-80
2022/08/24 11:43:26;;;;;;;41.10;8.00;;;;;;;31.51;44.53;100331.25;105589;1279;138523;-81
2022/08/24 11:46:13;;;;;;;34.10;8.60;;;;;;;31.33;44.87;100334.67;106216;1279;97833;-79
2022/08/24 11:48:58;;;;;;;54.40;9.50;;;;;;;31.21;45.13;100336.25;107094;1279;140123;-83
2022/08/24 11:51:40;;;;;;;39.50;8.80;;;;;;;31.10;45.14;100338.44;107156;1279;114069;-83
2022/08/24 11:54:23;;;;;;;38.40;8.70;;;;;;;30.98;45.41;100341.45;107074;1279;138708;-84
2022/08/24 11:57:07;;;;;;;40.40;7.70;;;;;;;30.88;45.70;100344.58;107045;1279;108945;-83
2022/08/24 11:59:50;;;;;;;41.50;7.90;;;;;;;30.80;45.94;100343.22;107203;1279;96269;-82
2022/08/24 12:02:31;;;;;;;46.10;8.00;;;;;;;30.72;46.07;100338.92;106939;1279;138560;-81
2022/08/24 12:05:12;;;;;;;41.30;8.10;;;;;;;30.65;45.96;100343.77;106663;1279;112562;-82
2022/08/24 12:07:58;;;;;;;39.70;8.60;;;;;;;30.62;46.26;100341.30;107118;1279;139285;-82
2022/08/24 12:10:46;;;;;;;38.00;8.00;;;;;;;30.59;46.24;100343.58;106485;1281;107787;-82